Time;durP1;ratioP1;P1;durP2;ratioP2;P2;SDS_P1;SDS_P2;PMS_P1;PMS_P2;Temp;Humidity;BMP_temperature;BMP_pressure;BME280_temperature;BME280_humidity;BME280_pressure;Samples;Min_cycle;Max_cycle;Signal;HPM_P1;HPM_P2
2023/11/24 00:00:24;;;;;;;10.83;7.83;;;;;21.50;100131.00;;;;2066598;28;20230;-65
2023/11/24 00:01:26;;;;;;;13.80;8.47;;;;;21.50;100130.00;;;;2066725;28;20349;-65
2023/11/24 00:02:27;;;;;;;11.63;8.38;;;;;21.50;100129.00;;;;2073130;28;20240;-65
2023/11/24 00:03:27;;;;;;;11.47;8.03;;;;;21.60;100128.00;;;;2066078;28;20214;-65
2023/11/24 00:04:27;;;;;;;11.73;8.30;;;;;21.50;100124.00;;;;2056571;28;20639;-65
2023/11/24 00:05:28;;;;;;;13.10;8.07;;;;;21.60;100139.00;;;;2066202;28;20635;-65
2023/11/24 00:06:28;;;;;;;9.13;7.40;;;;;21.50;100145.00;;;;2065237;28;20234;-65
2023/11/24 00:07:29;;;;;;;12.80;7.87;;;;;21.50;100146.00;;;;2066329;28;20260;-65
2023/11/24 00:08:30;;;;;;;14.20;8.20;;;;;21.50;100150.00;;;;2062030;28;20215;-65
2023/11/24 00:09:30;;;;;;;13.27;7.07;;;;;21.40;100132.00;;;;2072378;28;20252;-65
2023/11/24 00:10:31;;;;;;;11.27;7.20;;;;;21.40;100163.00;;;;2073574;28;20893;-65
2023/11/24 00:11:33;;;;;;;13.10;6.90;;;;;21.40;100173.00;;;;2066033;28;20229;-65
2023/11/24 00:12:34;;;;;;;10.63;6.85;;;;;21.50;100180.00;;;;2065617;28;20221;-65
2023/11/24 00:13:34;;;;;;;11.73;6.73;;;;;21.50;100160.00;;;;2056152;28;20210;-65
2023/11/24 00:14:34;;;;;;;13.80;7.57;;;;;21.50;100166.00;;;;2065908;28;20217;-65
2023/11/24 00:15:36;;;;;;;9.30;6.33;;;;;21.50;100155.00;;;;2065994;28;20238;-65
2023/11/24 00:16:38;;;;;;;11.25;5.95;;;;;21.50;100168.00;;;;2070247;28;20231;-65
2023/11/24 00:17:39;;;;;;;8.75;6.18;;;;;21.50;100158.00;;;;2065581;28;21032;-65
2023/11/24 00:18:40;;;;;;;9.13;6.17;;;;;21.50;100158.00;;;;2057631;28;20223;-65
2023/11/24 00:19:40;;;;;;;11.05;6.72;;;;;21.50;100169.00;;;;2066226;28;20219;-65
2023/11/24 00:20:41;;;;;;;9.03;6.40;;;;;21.50;100174.00;;;;2065773;28;20756;-66
2023/11/24 00:21:42;;;;;;;12.20;6.73;;;;;21.50;100188.00;;;;2066416;28;21488;-66
2023/11/24 00:22:43;;;;;;;12.52;6.93;;;;;21.50;100174.00;;;;2066281;28;20268;-66
2023/11/24 00:23:43;;;;;;;12.10;6.23;;;;;21.50;100180.00;;;;2058432;28;20296;-66
2023/11/24 00:24:43;;;;;;;11.37;6.17;;;;;21.50;100181.00;;;;2066346;28;20215;-66
2023/11/24 00:25:43;;;;;;;8.70;6.00;;;;;21.50;100190.00;;;;2068948;28;20304;-66
2023/11/24 00:26:44;;;;;;;10.77;6.03;;;;;21.50;100185.00;;;;2070914;28;20308;-66
2023/11/24 00:27:44;;;;;;;8.30;5.60;;;;;21.50;100199.00;;;;2066324;28;20207;-66
2023/11/24 00:28:45;;;;;;;8.50;5.60;;;;;21.50;100195.00;;;;2061109;28;20685;-66
2023/11/24 00:29:46;;;;;;;8.70;5.33;;;;;21.50;100195.00;;;;2066251;28;20673;-66
2023/11/24 00:30:46;;;;;;;11.83;6.77;;;;;21.40;100189.00;;;;2066018;28;20697;-66
2023/11/24 00:31:47;;;;;;;9.57;6.00;;;;;21.40;100208.00;;;;2065645;28;20449;-66
2023/11/24 00:32:48;;;;;;;8.00;5.07;;;;;21.50;100184.00;;;;2066725;28;20241;-66
2023/11/24 00:33:48;;;;;;;10.30;5.90;;;;;21.50;100198.00;;;;2060883;28;20217;-66
2023/11/24 00:34:48;;;;;;;8.50;4.60;;;;;21.40;100194.00;;;;2066675;28;20230;-66
2023/11/24 00:35:49;;;;;;;8.37;5.20;;;;;21.50;100181.00;;;;2070326;28;20217;-66
2023/11/24 00:36:49;;;;;;;8.40;5.00;;;;;21.50;100187.00;;;;2065973;28;20214;-65
2023/11/24 00:37:50;;;;;;;7.30;4.47;;;;;21.40;100185.00;;;;2068061;28;20214;-65
2023/11/24 00:38:50;;;;;;;7.17;4.37;;;;;21.40;100173.00;;;;2058991;28;20319;-65
2023/11/24 00:39:50;;;;;;;8.80;5.10;;;;;21.40;100184.00;;;;2065203;28;20234;-65
2023/11/24 00:40:51;;;;;;;8.30;4.63;;;;;21.40;100188.00;;;;2065445;28;20206;-65
2023/11/24 00:41:51;;;;;;;10.83;5.20;;;;;21.40;100197.00;;;;2064473;28;20223;-65
2023/11/24 00:42:51;;;;;;;6.93;4.93;;;;;21.40;100187.00;;;;2068940;28;20207;-65
2023/11/24 00:43:52;;;;;;;8.13;4.50;;;;;21.40;100188.00;;;;2056616;28;20238;-65
2023/11/24 00:44:52;;;;;;;11.00;5.57;;;;;21.40;100187.00;;;;2070153;28;20678;-65
2023/11/24 00:45:53;;;;;;;7.63;4.10;;;;;21.40;100191.00;;;;2069830;28;20246;-65
2023/11/24 00:46:54;;;;;;;8.67;5.07;;;;;21.40;100191.00;;;;2065389;28;20219;-65
2023/11/24 00:47:54;;;;;;;6.97;4.33;;;;;21.40;100187.00;;;;2066139;28;20473;-65
2023/11/24 00:48:56;;;;;;;7.13;4.87;;;;;21.40;100193.00;;;;2056640;28;20480;-65
2023/11/24 00:49:56;;;;;;;7.90;4.75;;;;;21.40;100196.00;;;;2066462;28;20850;-65
2023/11/24 00:50:57;;;;;;;5.97;4.00;;;;;21.40;100204.00;;;;2066375;28;20270;-65
2023/11/24 00:51:57;;;;;;;9.50;4.30;;;;;21.40;100203.00;;;;2066743;28;20729;-65
2023/11/24 00:52:58;;;;;;;9.17;4.50;;;;;21.40;100184.00;;;;2066248;28;20231;-65
2023/11/24 00:53:58;;;;;;;7.60;4.22;;;;;21.40;100198.00;;;;2055644;28;20230;-65
2023/11/24 00:54:59;;;;;;;6.53;4.33;;;;;21.40;100204.00;;;;2069363;28;20631;-65
2023/11/24 00:55:59;;;;;;;6.97;3.97;;;;;21.30;100201.00;;;;2063335;28;20682;-65
2023/11/24 00:57:00;;;;;;;6.40;4.50;;;;;21.30;100216.00;;;;2056476;28;20234;-65
2023/11/24 00:58:00;;;;;;;7.20;3.80;;;;;21.30;100201.00;;;;2065422;28;20312;-65
2023/11/24 00:59:00;;;;;;;7.00;3.87;;;;;21.30;100212.00;;;;2059166;28;20222;-65
2023/11/24 01:00:04;;;;;;;6.97;3.90;;;;;21.30;100203.00;;;;2069052;28;20220;-65
2023/11/24 01:01:04;;;;;;;8.48;4.40;;;;;21.30;100195.00;;;;2066992;28;20210;-65
2023/11/24 01:02:05;;;;;;;5.40;3.30;;;;;21.40;100198.00;;;;2066266;28;20293;-65
2023/11/24 01:03:06;;;;;;;6.80;4.67;;;;;21.30;100210.00;;;;2065579;28;20207;-65
2023/11/24 01:04:07;;;;;;;6.07;3.87;;;;;21.30;100214.00;;;;2060114;28;20722;-65
2023/11/24 01:05:09;;;;;;;7.88;3.92;;;;;21.30;100216.00;;;;2068364;28;20335;-65
2023/11/24 01:06:09;;;;;;;5.07;3.05;;;;;21.30;100224.00;;;;2065251;28;20222;-65
2023/11/24 01:07:09;;;;;;;6.97;3.67;;;;;21.40;100214.00;;;;2066333;28;20225;-65
2023/11/24 01:08:10;;;;;;;5.43;3.53;;;;;21.30;100157.00;;;;2066719;28;20222;-65
2023/11/24 01:09:10;;;;;;;5.80;4.07;;;;;21.30;100212.00;;;;2057559;28;20440;-65
2023/11/24 01:10:11;;;;;;;5.80;3.03;;;;;21.30;100208.00;;;;2064567;28;20604;-65
2023/11/24 01:11:11;;;;;;;6.40;3.50;;;;;21.30;100189.00;;;;2064702;28;20265;-65
2023/11/24 01:12:11;;;;;;;7.90;3.77;;;;;21.30;100204.00;;;;2064224;28;20269;-65
2023/11/24 01:13:11;;;;;;;6.43;3.50;;;;;21.30;100183.00;;;;2063623;28;20226;-65
2023/11/24 01:14:12;;;;;;;5.37;3.00;;;;;21.30;100180.00;;;;2060060;28;20230;-65
2023/11/24 01:15:12;;;;;;;8.50;3.07;;;;;21.30;100167.00;;;;2072352;28;20240;-65
2023/11/24 01:16:14;;;;;;;8.40;4.13;;;;;21.30;100180.00;;;;2071293;28;20226;-65
2023/11/24 01:17:14;;;;;;;6.63;3.50;;;;;21.30;100178.00;;;;2066130;28;20214;-65
2023/11/24 01:18:15;;;;;;;6.37;3.10;;;;;21.30;100182.00;;;;2065841;28;20215;-65
2023/11/24 01:19:15;;;;;;;6.63;3.20;;;;;21.30;100174.00;;;;2056526;28;20214;-65
2023/11/24 01:20:16;;;;;;;5.20;3.23;;;;;21.30;100176.00;;;;2064497;28;20235;-65
2023/11/24 01:21:17;;;;;;;6.60;3.80;;;;;21.30;100166.00;;;;2065942;28;20678;-65
2023/11/24 01:22:17;;;;;;;5.40;3.53;;;;;21.30;100173.00;;;;2064875;28;20238;-65
2023/11/24 01:23:17;;;;;;;4.73;2.80;;;;;21.20;100165.00;;;;2067967;28;20210;-65
2023/11/24 01:24:18;;;;;;;6.70;3.00;;;;;21.20;100179.00;;;;2056182;28;20215;-65
2023/11/24 01:25:18;;;;;;;4.60;2.87;;;;;21.30;100176.00;;;;2066444;28;20215;-65
2023/11/24 01:26:19;;;;;;;6.50;3.50;;;;;21.30;100166.00;;;;2065348;28;20250;-65
2023/11/24 01:27:19;;;;;;;5.10;2.90;;;;;21.30;100162.00;;;;2064892;28;20238;-65
2023/11/24 01:28:19;;;;;;;5.60;2.90;;;;;21.30;100162.00;;;;2062783;28;20485;-65
2023/11/24 01:29:20;;;;;;;3.83;2.37;;;;;21.30;100157.00;;;;2046035;28;20224;-65
2023/11/24 01:30:21;;;;;;;4.00;2.63;;;;;21.30;100162.00;;;;2055543;28;20219;-65
2023/11/24 01:31:22;;;;;;;4.33;2.63;;;;;21.30;100171.00;;;;2064074;28;20678;-65
2023/11/24 01:32:22;;;;;;;4.85;2.92;;;;;21.30;100166.00;;;;2064804;28;20227;-65
2023/11/24 01:33:23;;;;;;;5.40;2.97;;;;;21.20;100170.00;;;;2064166;28;20242;-65
2023/11/24 01:34:23;;;;;;;5.33;2.83;;;;;21.30;100171.00;;;;2046251;28;20219;-64
2023/11/24 01:35:24;;;;;;;6.50;3.07;;;;;21.30;100172.00;;;;2064002;28;20331;-66
2023/11/24 01:36:25;;;;;;;5.80;3.17;;;;;21.30;100163.00;;;;2063603;28;20237;-66
2023/11/24 01:37:25;;;;;;;5.70;2.87;;;;;21.30;100167.00;;;;2067412;28;20245;-66
2023/11/24 01:38:25;;;;;;;6.30;3.17;;;;;21.30;100173.00;;;;2064065;28;20344;-66
2023/11/24 01:39:26;;;;;;;3.50;2.27;;;;;21.30;100173.00;;;;2055370;28;20215;-66
2023/11/24 01:40:26;;;;;;;5.03;2.30;;;;;21.30;100176.00;;;;2063806;28;20225;-66
2023/11/24 01:41:27;;;;;;;4.60;2.43;;;;;21.10;100168.00;;;;2056267;28;20255;-66
2023/11/24 01:42:27;;;;;;;5.53;2.73;;;;;21.30;100173.00;;;;2063088;28;20242;-66
2023/11/24 01:43:27;;;;;;;5.53;2.43;;;;;21.30;100177.00;;;;2061357;28;20224;-66
2023/11/24 01:44:28;;;;;;;4.43;1.90;;;;;21.30;100166.00;;;;2054335;28;20226;-66
2023/11/24 01:45:29;;;;;;;6.23;2.33;;;;;21.20;100166.00;;;;2064440;28;20217;-66
2023/11/24 01:46:30;;;;;;;4.20;2.22;;;;;21.30;100171.00;;;;2064408;28;20257;-66
2023/11/24 01:47:31;;;;;;;5.50;2.80;;;;;21.20;100164.00;;;;2071482;28;20682;-66
2023/11/24 01:48:31;;;;;;;4.20;2.47;;;;;21.20;100173.00;;;;2054766;28;20977;-66
2023/11/24 01:49:31;;;;;;;3.30;2.40;;;;;21.20;100169.00;;;;2064227;28;20224;-66
2023/11/24 01:50:32;;;;;;;5.00;2.60;;;;;21.30;100165.00;;;;2063360;28;20203;-65
2023/11/24 01:51:32;;;;;;;3.57;2.17;;;;;21.20;100174.00;;;;2061102;28;20230;-65
2023/11/24 01:52:33;;;;;;;4.90;2.43;;;;;21.20;100092.00;;;;2064439;28;20207;-65
2023/11/24 01:53:34;;;;;;;4.67;2.50;;;;;21.20;100165.00;;;;2046124;28;20719;-65
2023/11/24 01:54:36;;;;;;;4.37;2.17;;;;;21.20;100163.00;;;;2055854;28;20517;-65
2023/11/24 01:55:37;;;;;;;5.80;2.70;;;;;21.20;100165.00;;;;2056965;28;20246;-65
2023/11/24 01:56:37;;;;;;;6.30;2.07;;;;;21.20;100161.00;;;;2068293;28;20236;-65
2023/11/24 01:57:39;;;;;;;3.70;1.93;;;;;21.20;100168.00;;;;2055727;28;20243;-65
2023/11/24 01:58:40;;;;;;;4.65;2.33;;;;;21.20;100154.00;;;;2045773;28;20208;-65
2023/11/24 01:59:40;;;;;;;4.30;1.93;;;;;21.20;100153.00;;;;2063695;28;20605;-65
2023/11/24 02:00:40;;;;;;;3.93;2.23;;;;;21.20;100155.00;;;;2064274;28;20588;-65
2023/11/24 02:01:41;;;;;;;4.77;2.67;;;;;21.20;100154.00;;;;2063978;28;20229;-65
2023/11/24 02:02:41;;;;;;;2.37;1.57;;;;;21.20;100149.00;;;;2055766;28;20215;-65
2023/11/24 02:03:41;;;;;;;3.90;2.30;;;;;21.20;100154.00;;;;2054487;28;20592;-65
2023/11/24 02:04:42;;;;;;;3.93;1.90;;;;;21.20;100157.00;;;;2064475;28;20691;-65
2023/11/24 02:05:42;;;;;;;3.70;2.00;;;;;21.20;100147.00;;;;2063913;28;20595;-65
2023/11/24 02:06:43;;;;;;;5.33;1.83;;;;;21.20;100154.00;;;;2071488;28;20618;-65
2023/11/24 02:07:44;;;;;;;3.27;2.03;;;;;21.20;100157.00;;;;2072234;28;20657;-65
2023/11/24 02:08:45;;;;;;;4.53;2.10;;;;;21.20;100166.00;;;;2060151;28;20229;-65
2023/11/24 02:09:46;;;;;;;4.72;1.92;;;;;21.10;100157.00;;;;2055769;28;20455;-65
2023/11/24 02:10:46;;;;;;;4.37;2.00;;;;;21.20;100161.00;;;;2063317;28;20223;-65
2023/11/24 02:11:47;;;;;;;4.90;2.50;;;;;21.20;100137.00;;;;2063671;28;20290;-66
2023/11/24 02:12:47;;;;;;;5.27;2.10;;;;;21.20;100149.00;;;;2065276;28;20690;-66
2023/11/24 02:13:48;;;;;;;4.40;1.90;;;;;21.20;100147.00;;;;2054850;28;20217;-65
2023/11/24 02:14:48;;;;;;;3.53;1.98;;;;;21.10;100148.00;;;;2063410;28;20221;-65
2023/11/24 02:15:49;;;;;;;4.07;1.90;;;;;21.20;100145.00;;;;2063756;28;20215;-65
2023/11/24 02:16:49;;;;;;;2.90;1.83;;;;;21.10;100137.00;;;;2064146;28;20257;-66
2023/11/24 02:17:51;;;;;;;3.57;2.20;;;;;21.10;100141.00;;;;2063969;28;20222;-66
2023/11/24 02:18:52;;;;;;;3.25;1.83;;;;;21.10;100141.00;;;;2054409;28;20250;-66
2023/11/24 02:19:52;;;;;;;3.20;1.80;;;;;21.10;100133.00;;;;2066297;28;20706;-66
2023/11/24 02:20:52;;;;;;;3.30;1.73;;;;;21.20;100134.00;;;;2069667;28;20736;-66
2023/11/24 02:21:53;;;;;;;3.27;1.60;;;;;21.10;100127.00;;;;2063338;28;20733;-66
2023/11/24 02:22:53;;;;;;;11.80;2.07;;;;;21.10;100137.00;;;;2067580;28;20233;-66
2023/11/24 02:23:54;;;;;;;5.30;1.80;;;;;21.10;100130.00;;;;2053720;28;20241;-65
2023/11/24 02:24:54;;;;;;;3.90;1.87;;;;;21.10;100128.00;;;;2064692;28;20745;-65
2023/11/24 02:25:54;;;;;;;5.00;1.83;;;;;21.10;100126.00;;;;2064250;28;20666;-66
2023/11/24 02:26:55;;;;;;;5.50;2.00;;;;;21.10;100118.00;;;;2063772;28;20203;-66
2023/11/24 02:27:56;;;;;;;4.50;2.05;;;;;21.10;100116.00;;;;2064070;28;20203;-66
2023/11/24 02:28:56;;;;;;;5.73;2.00;;;;;21.10;100122.00;;;;2053990;28;20658;-66
2023/11/24 02:29:56;;;;;;;4.00;1.83;;;;;21.10;100130.00;;;;2067415;28;20219;-65
2023/11/24 02:31:00;;;;;;;3.87;1.70;;;;;21.10;100126.00;;;;2064717;28;20709;-65
2023/11/24 02:32:01;;;;;;;3.72;1.65;;;;;21.10;100128.00;;;;2066703;28;20702;-65
2023/11/24 02:33:01;;;;;;;3.20;1.50;;;;;21.10;100125.00;;;;2065434;28;20195;-65
2023/11/24 02:34:02;;;;;;;5.07;2.00;;;;;21.10;100129.00;;;;2054316;28;20562;-65
2023/11/24 02:35:04;;;;;;;3.60;1.55;;;;;21.10;100125.00;;;;2055876;28;20245;-65
2023/11/24 02:36:08;;;;;;;2.72;1.67;;;;;21.10;100115.00;;;;2047751;28;20299;-65
2023/11/24 02:37:08;;;;;;;3.85;1.65;;;;;21.10;100136.00;;;;2065262;28;20733;-65
2023/11/24 02:38:09;;;;;;;2.17;1.33;;;;;21.10;100127.00;;;;2071651;28;20249;-65
2023/11/24 02:39:09;;;;;;;4.37;1.83;;;;;21.10;100130.00;;;;2057954;28;20249;-65
2023/11/24 02:40:10;;;;;;;2.10;1.30;;;;;21.10;100127.00;;;;2068013;28;20211;-65
2023/11/24 02:41:11;;;;;;;3.40;1.50;;;;;21.10;100110.00;;;;2065389;28;20698;-65
2023/11/24 02:42:12;;;;;;;3.88;1.90;;;;;21.10;100131.00;;;;2063924;28;20231;-65
2023/11/24 02:43:12;;;;;;;5.13;1.40;;;;;21.00;100134.00;;;;2063614;28;20242;-65
2023/11/24 02:44:13;;;;;;;2.73;1.40;;;;;21.00;100129.00;;;;2054551;28;20215;-65
2023/11/24 02:45:13;;;;;;;2.50;1.30;;;;;21.10;100141.00;;;;2064316;28;20214;-65
2023/11/24 02:46:13;;;;;;;3.03;1.50;;;;;21.10;100130.00;;;;2066670;28;20641;-65
2023/11/24 02:47:14;;;;;;;1.80;1.00;;;;;21.10;100131.00;;;;2056642;28;20224;-65
2023/11/24 02:48:16;;;;;;;4.27;1.10;;;;;21.10;100120.00;;;;2071666;28;20241;-65
2023/11/24 02:49:16;;;;;;;2.80;1.10;;;;;21.10;100128.00;;;;2058804;28;20221;-65
2023/11/24 02:50:17;;;;;;;2.30;1.20;;;;;21.00;100126.00;;;;2064315;28;20221;-65
2023/11/24 02:51:18;;;;;;;3.00;1.40;;;;;21.10;100115.00;;;;2068668;28;20233;-65
2023/11/24 02:52:18;;;;;;;3.00;1.10;;;;;21.10;100117.00;;;;2062533;28;20297;-65
2023/11/24 02:53:21;;;;;;;3.28;1.30;;;;;21.10;100116.00;;;;2058656;28;20249;-65
2023/11/24 02:54:21;;;;;;;3.70;1.47;;;;;21.10;100113.00;;;;2047608;28;20219;-66
2023/11/24 02:55:21;;;;;;;2.60;1.43;;;;;21.00;100117.00;;;;2062909;28;20586;-66
2023/11/24 02:56:22;;;;;;;2.47;1.30;;;;;21.00;100110.00;;;;2063787;28;20595;-66
2023/11/24 02:57:23;;;;;;;2.50;1.20;;;;;21.10;100108.00;;;;2053948;28;20284;-66
2023/11/24 02:58:25;;;;;;;4.03;1.50;;;;;21.10;100113.00;;;;2063185;28;20980;-66
2023/11/24 02:59:26;;;;;;;2.13;1.00;;;;;21.10;100114.00;;;;2054439;28;20218;-66
2023/11/24 03:00:27;;;;;;;4.60;1.58;;;;;21.10;100111.00;;;;2066097;28;20799;-66
2023/11/24 03:01:27;;;;;;;3.47;1.20;;;;;21.10;100108.00;;;;2065274;28;20225;-66
2023/11/24 03:02:27;;;;;;;4.20;1.80;;;;;21.00;100112.00;;;;2064695;28;20207;-66
2023/11/24 03:03:30;;;;;;;3.23;1.40;;;;;21.00;100112.00;;;;2063877;28;20211;-66
2023/11/24 03:04:30;;;;;;;2.78;1.52;;;;;20.90;100108.00;;;;2063368;28;20207;-66
2023/11/24 03:05:31;;;;;;;3.67;1.17;;;;;21.00;100106.00;;;;2063467;28;20211;-66
2023/11/24 03:06:31;;;;;;;5.10;1.50;;;;;21.00;100105.00;;;;2063687;28;20225;-66
2023/11/24 03:07:34;;;;;;;3.40;1.40;;;;;21.00;100101.00;;;;2066011;28;20198;-66
2023/11/24 03:08:34;;;;;;;3.72;1.65;;;;;21.00;100104.00;;;;2054722;28;20273;-66
2023/11/24 03:09:35;;;;;;;2.10;1.30;;;;;21.00;100097.00;;;;2062688;28;20218;-66
2023/11/24 03:10:36;;;;;;;3.67;1.90;;;;;21.00;100092.00;;;;2071278;28;20654;-66
2023/11/24 03:11:38;;;;;;;4.10;1.55;;;;;20.90;100102.00;;;;2056016;28;20310;-67
2023/11/24 03:12:38;;;;;;;2.88;1.13;;;;;21.00;100091.00;;;;2069002;28;20226;-65
2023/11/24 03:13:38;;;;;;;4.77;1.43;;;;;21.00;100084.00;;;;2054261;28;20211;-65
2023/11/24 03:14:42;;;;;;;2.87;1.20;;;;;20.90;100087.00;;;;2063413;28;20269;-65
2023/11/24 03:15:42;;;;;;;3.88;1.50;;;;;21.00;100083.00;;;;2063900;28;20564;-65
2023/11/24 03:16:43;;;;;;;3.73;1.53;;;;;21.00;100078.00;;;;2063573;28;20241;-65
2023/11/24 03:17:43;;;;;;;4.03;1.57;;;;;21.00;100081.00;;;;2063697;28;20230;-66
2023/11/24 03:18:43;;;;;;;2.93;1.50;;;;;21.00;100087.00;;;;2053583;28;20221;-66
2023/11/24 03:19:44;;;;;;;4.67;2.10;;;;;21.00;100082.00;;;;2066477;28;20218;-65
2023/11/24 03:20:45;;;;;;;3.70;1.40;;;;;20.90;100078.00;;;;2064024;28;20229;-65
2023/11/24 03:21:46;;;;;;;5.40;1.60;;;;;20.90;100068.00;;;;2065082;28;20225;-65
2023/11/24 03:22:46;;;;;;;2.03;0.93;;;;;21.00;100079.00;;;;2063367;28;20265;-65
2023/11/24 03:23:48;;;;;;;2.30;1.10;;;;;20.90;100067.00;;;;2053975;28;20486;-65
2023/11/24 03:24:48;;;;;;;2.77;1.17;;;;;20.90;100079.00;;;;2063618;28;20584;-65
2023/11/24 03:25:49;;;;;;;2.80;1.50;;;;;21.00;100068.00;;;;2063984;28;20603;-65
2023/11/24 03:26:50;;;;;;;1.75;1.00;;;;;20.90;100070.00;;;;2063197;28;20223;-65
2023/11/24 03:27:51;;;;;;;3.50;1.30;;;;;21.00;100065.00;;;;2063914;28;20231;-65
2023/11/24 03:28:52;;;;;;;3.55;1.25;;;;;21.00;100065.00;;;;2054810;28;20246;-65
2023/11/24 03:29:52;;;;;;;4.07;1.60;;;;;21.00;100060.00;;;;2070032;28;20214;-65
2023/11/24 03:30:52;;;;;;;3.27;1.10;;;;;20.90;100064.00;;;;2063536;28;20218;-65
2023/11/24 03:31:53;;;;;;;2.80;1.27;;;;;21.00;100062.00;;;;2063579;28;20242;-65
2023/11/24 03:32:53;;;;;;;2.50;1.20;;;;;21.00;100062.00;;;;2063699;28;20218;-65
2023/11/24 03:33:53;;;;;;;2.30;1.07;;;;;20.90;100065.00;;;;2052790;28;20226;-66
2023/11/24 03:34:55;;;;;;;3.60;1.30;;;;;21.00;100066.00;;;;2063068;28;20210;-66
2023/11/24 03:35:56;;;;;;;3.95;1.30;;;;;21.00;100074.00;;;;2062781;28;20260;-66
2023/11/24 03:36:56;;;;;;;3.97;1.30;;;;;21.00;100068.00;;;;2063108;28;20635;-66
2023/11/24 03:37:56;;;;;;;3.50;1.50;;;;;20.90;100069.00;;;;2070770;28;20273;-66
2023/11/24 03:38:56;;;;;;;3.30;1.30;;;;;20.90;100068.00;;;;2059199;28;20234;-66
2023/11/24 03:39:57;;;;;;;3.80;1.50;;;;;20.90;100065.00;;;;2063828;28;20214;-65
2023/11/24 03:40:58;;;;;;;3.23;1.50;;;;;20.90;100069.00;;;;2065848;28;20242;-65
2023/11/24 03:41:59;;;;;;;2.77;1.30;;;;;21.00;100065.00;;;;2063672;28;20489;-65
2023/11/24 03:43:02;;;;;;;3.93;1.37;;;;;21.00;100057.00;;;;2063361;28;20211;-65
2023/11/24 03:44:03;;;;;;;3.88;1.20;;;;;21.00;100056.00;;;;2053156;28;20238;-65
2023/11/24 03:45:06;;;;;;;4.07;1.40;;;;;20.90;100060.00;;;;2062792;28;20215;-65
2023/11/24 03:46:06;;;;;;;3.90;1.20;;;;;20.90;100073.00;;;;2062872;28;20298;-65
2023/11/24 03:47:06;;;;;;;3.60;1.50;;;;;20.90;100068.00;;;;2062725;28;20207;-65
2023/11/24 03:48:07;;;;;;;2.67;1.20;;;;;20.90;100063.00;;;;2062359;28;20218;-65
2023/11/24 03:49:07;;;;;;;2.30;1.27;;;;;20.90;100061.00;;;;2054185;28;20207;-65
2023/11/24 03:50:09;;;;;;;4.50;1.60;;;;;20.90;100063.00;;;;2065330;28;20694;-65
2023/11/24 03:51:10;;;;;;;2.63;1.15;;;;;20.90;100069.00;;;;2067942;28;20988;-65
2023/11/24 03:52:10;;;;;;;3.80;1.40;;;;;20.90;100070.00;;;;2063656;28;20210;-65
2023/11/24 03:53:11;;;;;;;4.33;1.60;;;;;20.90;100062.00;;;;2063480;28;20244;-65
2023/11/24 03:54:11;;;;;;;2.90;1.73;;;;;20.90;100066.00;;;;2054127;28;20277;-65
2023/11/24 03:55:11;;;;;;;3.47;1.30;;;;;20.90;100059.00;;;;2063291;28;20234;-65
2023/11/24 03:56:15;;;;;;;2.73;1.00;;;;;20.90;100059.00;;;;2062750;28;20198;-65
2023/11/24 03:57:15;;;;;;;6.35;1.60;;;;;20.90;100058.00;;;;2056728;28;20214;-65
2023/11/24 03:58:16;;;;;;;3.60;1.20;;;;;20.90;100058.00;;;;2066458;28;20234;-65
2023/11/24 03:59:16;;;;;;;4.07;1.40;;;;;20.90;100048.00;;;;2053953;28;20281;-65
2023/11/24 04:00:16;;;;;;;4.00;1.50;;;;;20.90;100055.00;;;;2065473;28;20215;-65
2023/11/24 04:01:17;;;;;;;2.23;1.07;;;;;20.90;100065.00;;;;2063754;28;20218;-65
2023/11/24 04:02:18;;;;;;;3.67;1.53;;;;;20.90;100048.00;;;;2066578;28;20218;-65
2023/11/24 04:03:18;;;;;;;5.22;1.00;;;;;20.80;100050.00;;;;2067015;28;20222;-65
2023/11/24 04:04:19;;;;;;;3.33;1.10;;;;;20.80;100058.00;;;;2054240;28;20268;-65
2023/11/24 04:05:19;;;;;;;5.13;1.33;;;;;20.90;100067.00;;;;2066846;28;20218;-65
2023/11/24 04:06:19;;;;;;;3.93;1.60;;;;;20.90;100060.00;;;;2063400;28;20243;-65
2023/11/24 04:07:20;;;;;;;3.73;1.10;;;;;20.90;100057.00;;;;2063998;28;20223;-65
2023/11/24 04:08:20;;;;;;;3.63;1.30;;;;;20.80;100051.00;;;;2063680;28;20217;-65
2023/11/24 04:09:20;;;;;;;3.03;1.23;;;;;20.80;100043.00;;;;2051957;28;20599;-65
2023/11/24 04:10:21;;;;;;;5.17;1.20;;;;;20.90;100053.00;;;;2062958;28;20702;-65
2023/11/24 04:11:21;;;;;;;5.80;1.30;;;;;20.90;100056.00;;;;2064248;28;20708;-65
2023/11/24 04:12:22;;;;;;;3.80;1.40;;;;;20.90;100046.00;;;;2066536;28;20980;-66
2023/11/24 04:13:22;;;;;;;3.20;1.30;;;;;20.90;100048.00;;;;2061549;28;20741;-66
2023/11/24 04:14:23;;;;;;;2.87;1.10;;;;;20.90;100047.00;;;;2058886;28;20221;-66
2023/11/24 04:15:23;;;;;;;6.37;1.73;;;;;20.80;100047.00;;;;2066242;28;20215;-66
2023/11/24 04:16:23;;;;;;;4.80;1.60;;;;;20.80;100044.00;;;;2065261;28;20264;-66
2023/11/24 04:17:24;;;;;;;2.40;0.97;;;;;20.80;100042.00;;;;2066091;28;20315;-66
2023/11/24 04:18:24;;;;;;;3.47;1.47;;;;;20.80;100035.00;;;;2063048;28;20221;-66
2023/11/24 04:19:25;;;;;;;3.80;1.40;;;;;20.80;100038.00;;;;2055800;28;20219;-66
2023/11/24 04:20:25;;;;;;;5.40;1.50;;;;;20.80;100038.00;;;;2063657;28;20478;-66
2023/11/24 04:21:25;;;;;;;5.33;1.23;;;;;20.80;100033.00;;;;2067511;28;20213;-66
2023/11/24 04:22:26;;;;;;;3.63;1.17;;;;;20.80;100042.00;;;;2049233;28;20287;-66
2023/11/24 04:23:26;;;;;;;2.70;1.17;;;;;20.80;100044.00;;;;2056189;28;20235;-66
2023/11/24 04:24:26;;;;;;;2.80;1.33;;;;;20.80;100041.00;;;;2056289;28;20217;-66
2023/11/24 04:25:27;;;;;;;4.23;1.20;;;;;20.80;100043.00;;;;2063264;28;20215;-66
2023/11/24 04:26:27;;;;;;;4.23;1.23;;;;;20.80;100039.00;;;;2065049;28;20222;-66
2023/11/24 04:27:27;;;;;;;3.90;1.23;;;;;20.80;100049.00;;;;2063533;28;20235;-66
2023/11/24 04:28:28;;;;;;;4.30;1.33;;;;;20.80;100030.00;;;;2063201;28;20241;-66
2023/11/24 04:29:28;;;;;;;4.87;1.40;;;;;20.80;100038.00;;;;2053909;28;20583;-66
2023/11/24 04:30:28;;;;;;;2.57;1.00;;;;;20.80;100037.00;;;;2063551;28;20556;-66
2023/11/24 04:31:30;;;;;;;4.33;1.00;;;;;20.80;100029.00;;;;2065725;28;20709;-66
2023/11/24 04:32:30;;;;;;;3.92;1.33;;;;;20.80;100033.00;;;;2063510;28;20218;-66
2023/11/24 04:33:31;;;;;;;4.50;1.30;;;;;20.80;100023.00;;;;2053872;28;20639;-66
2023/11/24 04:34:31;;;;;;;2.63;1.10;;;;;20.80;100022.00;;;;2063545;28;20682;-66
2023/11/24 04:35:32;;;;;;;4.47;1.17;;;;;20.80;100024.00;;;;2062846;28;20218;-66
2023/11/24 04:36:32;;;;;;;2.60;1.20;;;;;20.80;100020.00;;;;2063124;28;20215;-66
2023/11/24 04:37:32;;;;;;;5.33;1.43;;;;;20.80;100028.00;;;;2062885;28;20226;-66
2023/11/24 04:38:33;;;;;;;1.80;1.03;;;;;20.80;100002.00;;;;2055624;28;20244;-66
2023/11/24 04:39:33;;;;;;;3.07;1.00;;;;;20.80;100022.00;;;;2063654;28;20258;-65
2023/11/24 04:40:33;;;;;;;2.93;1.20;;;;;20.80;100013.00;;;;2068270;28;20579;-65
2023/11/24 04:41:33;;;;;;;2.10;0.83;;;;;20.80;100014.00;;;;2065224;28;20647;-65
2023/11/24 04:42:34;;;;;;;3.40;1.70;;;;;20.80;100016.00;;;;2062174;28;20765;-65
2023/11/24 04:43:35;;;;;;;4.50;1.47;;;;;20.80;100017.00;;;;2053103;28;20748;-65
2023/11/24 04:44:35;;;;;;;5.77;1.43;;;;;20.80;100017.00;;;;2063111;28;20484;-65
2023/11/24 04:45:35;;;;;;;5.20;1.20;;;;;20.80;100011.00;;;;2063543;28;20203;-65
2023/11/24 04:46:36;;;;;;;2.97;1.27;;;;;20.80;100019.00;;;;2064673;28;20230;-65
2023/11/24 04:47:36;;;;;;;3.33;1.53;;;;;20.70;100012.00;;;;2069617;28;20214;-65
2023/11/24 04:48:39;;;;;;;3.50;1.17;;;;;20.70;100019.00;;;;2056722;28;20222;-65
2023/11/24 04:49:40;;;;;;;5.75;1.42;;;;;20.70;100019.00;;;;2064491;28;20246;-65
2023/11/24 04:50:40;;;;;;;2.90;1.30;;;;;20.80;100017.00;;;;2064852;28;20228;-65
2023/11/24 04:51:40;;;;;;;4.40;1.57;;;;;20.80;100013.00;;;;2065010;28;20215;-65
2023/11/24 04:52:41;;;;;;;2.80;1.10;;;;;20.80;100011.00;;;;2064587;28;20253;-65
2023/11/24 04:53:42;;;;;;;4.32;1.27;;;;;20.80;100025.00;;;;2055008;28;20207;-65
2023/11/24 04:54:42;;;;;;;3.77;1.23;;;;;20.80;100013.00;;;;2065315;28;20630;-65
2023/11/24 04:55:42;;;;;;;4.23;1.50;;;;;20.80;100018.00;;;;2065105;28;20685;-65
2023/11/24 04:56:43;;;;;;;3.70;1.10;;;;;20.80;100007.00;;;;2064800;28;20226;-65
2023/11/24 04:57:49;;;;;;;3.70;1.13;;;;;20.80;100008.00;;;;2065322;28;20219;-65
2023/11/24 04:58:49;;;;;;;5.97;1.35;;;;;20.80;100011.00;;;;2047968;28;20232;-65
2023/11/24 04:59:49;;;;;;;3.80;1.23;;;;;20.80;100012.00;;;;2070965;28;20214;-65